Time;durP1;ratioP1;P1;durP2;ratioP2;P2;SDS_P1;SDS_P2;PMS_P1;PMS_P2;Temp;Humidity;BMP_temperature;BMP_pressure;BME280_temperature;BME280_humidity;BME280_pressure;Samples;Min_cycle;Max_cycle;Signal;HPM_P1;HPM_P2
2023/02/10 00:01:38;;;;;;;;;;;;;;;21.96;13.72;99917.03;5108781;28;972;-79
2023/02/10 00:04:03;;;;;;;;;;;;;;;22.40;13.55;99918.78;5076273;28;857;-79
2023/02/10 00:06:29;;;;;;;;;;;;;;;21.88;13.98;99915.44;5075800;28;1121;-79
2023/02/10 00:08:58;;;;;;;;;;;;;;;22.06;13.73;99921.94;5075996;28;898;-80
2023/02/10 00:11:56;;;;;;;;;;;;;;;22.16;13.53;99926.03;5075842;28;1092;-79
2023/02/10 00:14:08;;;;;;;;;;;;;;;22.11;13.84;99918.72;5076290;28;824;-80
2023/02/10 00:16:34;;;;;;;;;;;;;;;21.57;14.23;99924.22;5075952;28;916;-79
2023/02/10 00:18:59;;;;;;;;;;;;;;;22.02;13.78;99916.28;5076321;28;1972;-78
2023/02/10 00:21:25;;;;;;;;;;;;;;;21.72;13.96;99919.44;5076140;28;838;-79
2023/02/10 00:23:50;;;;;;;;;;;;;;;22.07;13.60;99913.03;5075685;28;853;-79
2023/02/10 00:26:16;;;;;;;;;;;;;;;22.13;13.65;99912.69;5076016;28;949;-79
2023/02/10 00:28:42;;;;;;;;;;;;;;;21.90;13.70;99901.66;5091284;28;1365;-79
2023/02/10 00:31:10;;;;;;;;;;;;;;;22.01;13.44;99908.94;5075510;28;995;-79
2023/02/10 00:33:35;;;;;;;;;;;;;;;21.92;13.62;99910.59;5108210;28;932;-79
2023/02/10 00:36:05;;;;;;;;;;;;;;;22.07;13.73;99909.38;5074254;28;898;-80
2023/02/10 00:38:30;;;;;;;;;;;;;;;22.30;13.32;99901.34;5108372;28;1905;-79
2023/02/10 00:40:56;;;;;;;;;;;;;;;21.87;13.60;99902.47;5075640;28;912;-79
2023/02/10 00:43:21;;;;;;;;;;;;;;;21.50;13.96;99897.88;5076939;28;1881;-79
2023/02/10 00:45:46;;;;;;;;;;;;;;;22.12;13.35;99896.84;5075539;28;1051;-79
2023/02/10 00:48:12;;;;;;;;;;;;;;;21.62;14.03;99903.19;5075867;28;919;-79
2023/02/10 00:50:37;;;;;;;;;;;;;;;21.62;13.81;99891.88;5075719;28;939;-79
2023/02/10 00:53:03;;;;;;;;;;;;;;;21.99;13.69;99879.41;5075925;28;855;-79
2023/02/10 00:55:28;;;;;;;;;;;;;;;21.40;14.07;99895.81;5075882;28;922;-79
2023/02/10 00:57:55;;;;;;;;;;;;;;;21.03;14.44;99899.66;5093226;28;1905;-79
2023/02/10 01:00:20;;;;;;;;;;;;;;;21.84;13.87;99893.53;5076299;28;1014;-79
2023/02/10 01:02:46;;;;;;;;;;;;;;;21.65;13.96;99896.72;5076782;28;1180;-79
2023/02/10 01:05:11;;;;;;;;;;;;;;;21.54;13.79;99902.34;5093216;28;1101;-79
2023/02/10 01:07:37;;;;;;;;;;;;;;;20.89;14.29;99894.72;5093556;28;1262;-79
2023/02/10 01:10:02;;;;;;;;;;;;;;;22.07;13.36;99883.84;5093151;28;983;-79
2023/02/10 01:12:28;;;;;;;;;;;;;;;21.78;13.80;99883.81;5093379;28;1308;-79
2023/02/10 01:14:54;;;;;;;;;;;;;;;22.16;13.34;99886.34;5093079;28;1256;-79
2023/02/10 01:17:19;;;;;;;;;;;;;;;22.09;13.43;99881.44;5093629;28;1406;-79
2023/02/10 01:19:45;;;;;;;;;;;;;;;22.43;13.29;99878.22;5109783;28;1988;-79
2023/02/10 01:22:10;;;;;;;;;;;;;;;22.26;13.11;99891.22;5059808;28;1181;-79
2023/02/10 01:24:37;;;;;;;;;;;;;;;21.59;13.78;99881.31;5076246;28;1216;-79
2023/02/10 01:27:02;;;;;;;;;;;;;;;21.78;13.66;99872.47;5042522;28;967;-80
2023/02/10 01:29:28;;;;;;;;;;;;;;;22.43;13.28;99875.41;5076277;28;958;-79
2023/02/10 01:31:53;;;;;;;;;;;;;;;22.44;13.31;99865.69;5092905;28;1056;-78
2023/02/10 01:34:19;;;;;;;;;;;;;;;21.83;13.70;99874.94;5076091;28;1232;-79
2023/02/10 01:36:44;;;;;;;;;;;;;;;22.04;13.26;99876.19;5093097;28;1010;-79
2023/02/10 01:39:09;;;;;;;;;;;;;;;21.83;13.53;99874.94;5059444;28;1906;-79
2023/02/10 01:41:35;;;;;;;;;;;;;;;22.01;13.41;99868.47;5092970;28;959;-78
2023/02/10 01:44:00;;;;;;;;;;;;;;;21.75;13.66;99873.28;5077543;28;1003;-79
2023/02/10 01:46:27;;;;;;;;;;;;;;;22.04;13.19;99868.47;5079939;28;1563;-79
2023/02/10 01:48:53;;;;;;;;;;;;;;;22.07;13.40;99867.69;5079742;28;992;-80
2023/02/10 01:51:19;;;;;;;;;;;;;;;22.08;13.28;99874.97;5063288;28;977;-79
2023/02/10 01:53:44;;;;;;;;;;;;;;;22.32;13.05;99873.38;5060161;28;1020;-79
2023/02/10 01:56:10;;;;;;;;;;;;;;;21.98;13.35;99870.09;5111579;28;923;-80
2023/02/10 01:58:37;;;;;;;;;;;;;;;21.70;13.56;99865.16;5093605;28;1898;-79
2023/02/10 02:01:03;;;;;;;;;;;;;;;21.47;13.61;99862.69;5061024;28;1318;-79
2023/02/10 02:03:29;;;;;;;;;;;;;;;22.04;13.18;99862.00;5060907;28;1197;-79
2023/02/10 02:05:55;;;;;;;;;;;;;;;22.24;13.07;99860.44;5077054;28;1156;-79
2023/02/10 02:08:23;;;;;;;;;;;;;;;22.52;12.84;99859.59;5060538;28;1057;-79
2023/02/10 02:10:49;;;;;;;;;;;;;;;22.40;12.90;99853.53;5060793;28;926;-79
2023/02/10 02:13:33;;;;;;;;;;;;;;;21.54;13.76;99857.03;5076770;28;908;-79
2023/02/10 02:16:19;;;;;;;;;;;;;;;22.28;13.32;99847.06;5078515;28;1034;-79
2023/02/10 02:19:08;;;;;;;;;;;;;;;22.07;13.48;99845.00;5038958;28;1963;-79
2023/02/10 02:21:39;;;;;;;;;;;;;;;22.05;13.44;99838.09;4976485;28;1016;-79
2023/02/10 02:24:23;;;;;;;;;;;;;;;22.16;13.20;99836.09;4976673;28;1035;-79
2023/02/10 02:27:07;;;;;;;;;;;;;;;21.38;13.91;99835.94;4976897;28;1008;-79
2023/02/10 02:29:38;;;;;;;;;;;;;;;21.87;13.64;99831.63;4976549;28;1039;-79
2023/02/10 02:32:13;;;;;;;;;;;;;;;22.33;12.92;99840.19;4976582;28;1040;-79
2023/02/10 02:34:50;;;;;;;;;;;;;;;21.85;13.54;99840.50;4976652;28;1172;-79
2023/02/10 02:37:26;;;;;;;;;;;;;;;21.95;13.14;99831.22;4960392;28;1222;-79
2023/02/10 02:39:52;;;;;;;;;;;;;;;21.91;13.54;99832.41;4976291;28;1883;-79
2023/02/10 02:42:27;;;;;;;;;;;;;;;21.91;13.63;99835.25;4976479;28;1100;-79
2023/02/10 02:44:54;;;;;;;;;;;;;;;21.24;14.01;99831.84;4976673;28;1116;-79
2023/02/10 02:47:38;;;;;;;;;;;;;;;21.92;13.27;99836.91;4976473;28;876;-79
2023/02/10 02:50:11;;;;;;;;;;;;;;;21.71;13.43;99826.31;4976214;28;990;-79
2023/02/10 02:52:39;;;;;;;;;;;;;;;22.04;13.48;99819.47;4976295;28;996;-79
2023/02/10 02:55:11;;;;;;;;;;;;;;;21.71;13.40;99831.97;4982610;28;1019;-79
2023/02/10 02:57:48;;;;;;;;;;;;;;;21.59;13.62;99841.66;5005629;28;1496;-79
2023/02/10 03:00:17;;;;;;;;;;;;;;;21.71;13.61;99838.47;5042649;28;1906;-78
2023/02/10 03:02:44;;;;;;;;;;;;;;;21.55;13.57;99838.00;5059453;28;928;-79
2023/02/10 03:05:10;;;;;;;;;;;;;;;21.86;13.45;99833.63;5059645;28;1102;-79
2023/02/10 03:07:36;;;;;;;;;;;;;;;21.84;13.48;99842.53;5041044;28;1193;-79
2023/02/10 03:10:02;;;;;;;;;;;;;;;21.85;13.45;99838.47;5074394;28;985;-79
2023/02/10 03:12:28;;;;;;;;;;;;;;;22.00;13.21;99830.00;5091536;28;936;-79
2023/02/10 03:14:53;;;;;;;;;;;;;;;21.70;13.66;99825.50;5074401;28;1038;-79
2023/02/10 03:17:18;;;;;;;;;;;;;;;21.84;13.40;99825.53;5074387;28;859;-79
2023/02/10 03:19:44;;;;;;;;;;;;;;;22.05;13.41;99818.25;5074232;28;1918;-79
2023/02/10 03:22:09;;;;;;;;;;;;;;;21.73;13.48;99824.72;5074083;28;1497;-79
2023/02/10 03:24:35;;;;;;;;;;;;;;;21.50;13.90;99819.41;5074528;28;906;-79
2023/02/10 03:27:00;;;;;;;;;;;;;;;21.90;13.54;99816.63;5074329;28;892;-79
2023/02/10 03:29:26;;;;;;;;;;;;;;;21.78;13.45;99810.16;5074550;28;943;-79
2023/02/10 03:31:51;;;;;;;;;;;;;;;21.92;13.34;99826.38;5074658;28;966;-79
2023/02/10 03:34:16;;;;;;;;;;;;;;;22.42;13.06;99811.38;5074412;28;884;-79
2023/02/10 03:36:42;;;;;;;;;;;;;;;21.81;13.29;99809.34;5090920;28;1019;-79
2023/02/10 03:39:07;;;;;;;;;;;;;;;22.19;13.25;99806.97;5069129;28;1910;-79
2023/02/10 03:41:33;;;;;;;;;;;;;;;21.72;13.57;99803.25;5075249;28;921;-79
2023/02/10 03:43:58;;;;;;;;;;;;;;;21.85;13.38;99809.34;5076297;28;1028;-79
2023/02/10 03:46:24;;;;;;;;;;;;;;;21.71;13.36;99809.31;5076308;28;1082;-79
2023/02/10 03:48:49;;;;;;;;;;;;;;;21.45;13.88;99797.16;5075937;28;984;-79
2023/02/10 03:51:15;;;;;;;;;;;;;;;21.81;13.26;99791.50;5076166;28;880;-79
2023/02/10 03:53:40;;;;;;;;;;;;;;;22.23;12.81;99784.28;5076117;28;1010;-79
2023/02/10 03:56:06;;;;;;;;;;;;;;;21.82;13.51;99782.63;5076484;28;1002;-79
2023/02/10 03:58:31;;;;;;;;;;;;;;;21.91;13.44;99781.41;5075888;28;1902;-79
2023/02/10 04:00:57;;;;;;;;;;;;;;;22.20;13.04;99776.56;5076153;28;1052;-79
2023/02/10 04:03:22;;;;;;;;;;;;;;;22.37;12.92;99775.72;5076493;28;855;-79
2023/02/10 04:05:48;;;;;;;;;;;;;;;22.09;13.11;99774.53;5075507;28;1217;-79
2023/02/10 04:08:13;;;;;;;;;;;;;;;22.00;13.24;99776.94;5075598;28;911;-79
2023/02/10 04:10:39;;;;;;;;;;;;;;;22.04;13.36;99771.28;5075837;28;1094;-79
2023/02/10 04:13:04;;;;;;;;;;;;;;;22.35;12.75;99772.50;5075646;28;939;-79
2023/02/10 04:15:30;;;;;;;;;;;;;;;22.41;12.96;99773.72;5074886;28;891;-79
2023/02/10 04:17:56;;;;;;;;;;;;;;;22.21;12.88;99776.16;5075786;28;950;-79
2023/02/10 04:20:22;;;;;;;;;;;;;;;22.33;13.03;99777.78;5075820;28;1975;-79
2023/02/10 04:22:47;;;;;;;;;;;;;;;22.33;12.67;99770.09;5076014;28;969;-79
2023/02/10 04:25:12;;;;;;;;;;;;;;;22.83;12.35;99771.97;5075619;28;919;-79
2023/02/10 04:27:38;;;;;;;;;;;;;;;22.43;12.58;99770.44;5075638;28;928;-79
2023/02/10 04:30:04;;;;;;;;;;;;;;;22.20;12.95;99774.53;5075705;28;947;-79
2023/02/10 04:32:29;;;;;;;;;;;;;;;22.22;13.02;99765.63;5075624;28;1003;-79
2023/02/10 04:34:54;;;;;;;;;;;;;;;22.14;12.90;99769.69;5075883;28;949;-79
2023/02/10 04:37:20;;;;;;;;;;;;;;;22.63;12.58;99771.63;5075738;28;1027;-79
2023/02/10 04:39:45;;;;;;;;;;;;;;;22.32;12.87;99776.94;5075779;28;1901;-79
2023/02/10 04:42:11;;;;;;;;;;;;;;;21.82;13.45;99771.28;5066852;28;1632;-79
2023/02/10 04:44:36;;;;;;;;;;;;;;;22.12;12.96;99778.59;5074142;28;1550;-78
2023/02/10 04:47:02;;;;;;;;;;;;;;;21.88;13.33;99779.41;5075684;28;837;-79
2023/02/10 04:49:27;;;;;;;;;;;;;;;22.38;12.92;99785.06;5074484;28;927;-80
2023/02/10 04:51:53;;;;;;;;;;;;;;;22.49;12.88;99783.03;5074920;28;1722;-80
2023/02/10 04:54:18;;;;;;;;;;;;;;;22.48;12.90;99784.22;5075352;28;916;-78
2023/02/10 04:56:44;;;;;;;;;;;;;;;22.27;13.00;99774.53;5075673;28;944;-79
2023/02/10 04:59:09;;;;;;;;;;;;;;;22.00;13.02;99784.66;5075680;28;1906;-79
2023/02/10 05:01:35;;;;;;;;;;;;;;;22.34;13.12;99785.88;5073241;28;1363;-79
2023/02/10 05:04:00;;;;;;;;;;;;;;;22.26;12.96;99784.25;5072921;28;1442;-79
2023/02/10 05:06:26;;;;;;;;;;;;;;;22.35;12.97;99781.81;5075781;28;1028;-79
2023/02/10 05:08:51;;;;;;;;;;;;;;;21.58;13.24;99777.72;5074405;28;1348;-80
2023/02/10 05:11:17;;;;;;;;;;;;;;;22.05;13.42;99775.75;5075315;28;1138;-79
2023/02/10 05:13:42;;;;;;;;;;;;;;;22.47;12.72;99777.75;5075098;28;934;-79
2023/02/10 05:16:08;;;;;;;;;;;;;;;22.50;12.61;99776.94;5074824;28;1344;-79
2023/02/10 05:18:34;;;;;;;;;;;;;;;21.82;13.13;99771.28;5071709;28;1984;-80
2023/02/10 05:20:59;;;;;;;;;;;;;;;22.08;13.27;99772.09;5095164;28;1540;-79
2023/02/10 05:23:25;;;;;;;;;;;;;;;21.94;13.16;99772.91;5081029;28;1370;-80
2023/02/10 05:25:50;;;;;;;;;;;;;;;22.19;13.12;99778.59;5079198;28;1624;-79
2023/02/10 05:28:16;;;;;;;;;;;;;;;22.83;12.62;99784.13;5078998;28;911;-79
2023/02/10 05:30:41;;;;;;;;;;;;;;;22.56;12.74;99777.31;5079324;28;888;-79
2023/02/10 05:33:07;;;;;;;;;;;;;;;22.45;12.71;99773.72;5078635;28;938;-79
2023/02/10 05:35:32;;;;;;;;;;;;;;;22.61;12.71;99782.59;5078808;28;1182;-80
2023/02/10 05:37:57;;;;;;;;;;;;;;;21.97;13.10;99782.63;5078476;28;1509;-79
2023/02/10 05:40:23;;;;;;;;;;;;;;;22.22;12.98;99789.13;5077641;28;1910;-80
2023/02/10 05:42:49;;;;;;;;;;;;;;;22.36;12.99;99789.09;5078696;28;984;-79
2023/02/10 05:45:14;;;;;;;;;;;;;;;22.29;13.08;99783.47;5079115;28;984;-79
2023/02/10 05:47:40;;;;;;;;;;;;;;;22.56;12.87;99797.19;5078514;28;1000;-79
2023/02/10 05:50:05;;;;;;;;;;;;;;;21.90;13.45;99791.13;5078556;28;1195;-79
2023/02/10 05:52:31;;;;;;;;;;;;;;;21.84;13.33;99800.03;5067770;28;1454;-80
2023/02/10 05:54:56;;;;;;;;;;;;;;;21.94;13.19;99794.78;5074900;28;1477;-79
2023/02/10 05:57:21;;;;;;;;;;;;;;;22.43;12.95;99795.97;5077959;28;1513;-80
2023/02/10 05:59:47;;;;;;;;;;;;;;;22.19;13.12;99794.81;5078096;28;1902;-79
2023/02/10 06:02:12;;;;;;;;;;;;;;;22.44;12.72;99789.91;5078606;28;941;-80
2023/02/10 06:04:38;;;;;;;;;;;;;;;22.09;13.16;99785.88;5078280;28;936;-79
2023/02/10 06:07:03;;;;;;;;;;;;;;;21.88;13.19;99796.41;5077127;28;1552;-79
2023/02/10 06:09:29;;;;;;;;;;;;;;;22.28;12.93;99790.34;5064234;28;1322;-80
2023/02/10 06:11:54;;;;;;;;;;;;;;;22.69;12.75;99795.53;5057185;28;899;-79
2023/02/10 06:14:20;;;;;;;;;;;;;;;22.32;12.90;99799.63;5065060;28;1353;-80
2023/02/10 06:16:45;;;;;;;;;;;;;;;22.38;13.02;99785.84;5078509;28;1521;-80
2023/02/10 06:19:11;;;;;;;;;;;;;;;22.42;13.00;99788.69;5077651;28;1910;-80
2023/02/10 06:21:36;;;;;;;;;;;;;;;22.36;12.87;99791.94;5109918;28;921;-79
2023/02/10 06:24:02;;;;;;;;;;;;;;;22.47;12.65;99794.75;5078209;28;1001;-79
2023/02/10 06:26:27;;;;;;;;;;;;;;;22.12;12.89;99795.59;5109858;28;958;-80
2023/02/10 06:28:53;;;;;;;;;;;;;;;21.81;13.47;99803.69;5077795;28;747;-80
2023/02/10 06:31:18;;;;;;;;;;;;;;;22.09;13.24;99799.22;5077026;28;1572;-79
2023/02/10 06:33:44;;;;;;;;;;;;;;;21.91;13.47;99795.56;5077837;28;953;-80
2023/02/10 06:36:09;;;;;;;;;;;;;;;22.15;13.27;99794.81;5075399;28;996;-79
2023/02/10 06:38:35;;;;;;;;;;;;;;;22.61;12.80;99799.59;5076573;28;1909;-80
2023/02/10 06:41:00;;;;;;;;;;;;;;;22.69;12.72;99803.22;5076096;28;1322;-79
2023/02/10 06:43:26;;;;;;;;;;;;;;;22.31;13.19;99800.84;5069501;28;1473;-80
2023/02/10 06:45:51;;;;;;;;;;;;;;;22.26;13.07;99801.28;5077640;28;961;-80
2023/02/10 06:48:17;;;;;;;;;;;;;;;22.70;12.89;99807.69;5077352;28;1653;-79
2023/02/10 06:50:42;;;;;;;;;;;;;;;22.54;12.91;99814.63;5077981;28;1135;-80
2023/02/10 06:53:07;;;;;;;;;;;;;;;22.42;12.86;99802.88;5077548;28;912;-79
2023/02/10 06:55:36;;;;;;;;;;;;;;;22.29;13.18;99811.00;5077681;28;856;-80
2023/02/10 06:58:01;;;;;;;;;;;;;;;21.92;13.34;99814.22;5077127;28;901;-80
2023/02/10 07:00:27;;;;;;;;;;;;;;;22.04;13.15;99802.47;5102745;28;1972;-80
2023/02/10 07:02:52;;;;;;;;;;;;;;;22.22;12.92;99820.31;5057685;28;879;-80
2023/02/10 07:05:18;;;;;;;;;;;;;;;22.17;13.19;99811.41;5077665;28;830;-79
2023/02/10 07:07:43;;;;;;;;;;;;;;;22.50;12.88;99813.00;5077536;28;1154;-80
2023/02/10 07:10:09;;;;;;;;;;;;;;;22.45;13.15;99814.22;5077496;28;848;-80
2023/02/10 07:12:34;;;;;;;;;;;;;;;22.67;12.57;99817.81;5076021;28;862;-80
2023/02/10 07:15:00;;;;;;;;;;;;;;;22.14;13.06;99821.53;5058733;28;1366;-79
2023/02/10 07:17:26;;;;;;;;;;;;;;;22.48;12.84;99818.25;5057347;28;847;-80
2023/02/10 07:19:51;;;;;;;;;;;;;;;22.31;13.04;99820.72;5057127;28;1921;-80
2023/02/10 07:22:16;;;;;;;;;;;;;;;22.65;12.85;99828.78;5056869;28;881;-80
2023/02/10 07:24:42;;;;;;;;;;;;;;;22.54;12.69;99823.13;5056851;28;1463;-80
2023/02/10 07:27:07;;;;;;;;;;;;;;;22.20;13.38;99827.63;5087899;28;955;-80
2023/02/10 07:29:33;;;;;;;;;;;;;;;22.23;13.14;99816.28;5056800;28;881;-79
2023/02/10 07:31:58;;;;;;;;;;;;;;;22.61;13.13;99822.31;5057132;28;815;-80
2023/02/10 07:34:24;;;;;;;;;;;;;;;22.36;12.93;99828.81;5056774;28;1288;-80
2023/02/10 07:36:53;;;;;;;;;;;;;;;22.30;13.26;99819.09;5094575;28;914;-80
2023/02/10 07:39:22;;;;;;;;;;;;;;;23.01;12.41;99817.38;5094552;28;1909;-80
2023/02/10 07:41:47;;;;;;;;;;;;;;;22.85;12.38;99827.13;5094520;28;939;-80
2023/02/10 07:44:12;;;;;;;;;;;;;;;22.23;13.11;99823.97;5093980;28;1522;-80
2023/02/10 07:46:38;;;;;;;;;;;;;;;22.13;13.37;99824.78;5094626;28;887;-79
2023/02/10 07:49:03;;;;;;;;;;;;;;;21.78;13.56;99820.66;5094217;28;972;-80
2023/02/10 07:51:29;;;;;;;;;;;;;;;21.69;13.33;99835.22;5094155;28;955;-80
2023/02/10 07:53:54;;;;;;;;;;;;;;;22.04;13.16;99833.66;5065115;28;1534;-79
2023/02/10 07:56:20;;;;;;;;;;;;;;;22.01;13.29;99825.94;5094629;28;940;-80
2023/02/10 07:58:45;;;;;;;;;;;;;;;21.92;13.29;99825.56;5093999;28;1959;-80
2023/02/10 08:01:11;;;;;;;;;;;;;;;22.80;12.76;99826.72;5077516;28;827;-80
2023/02/10 08:03:36;;;;;;;;;;;;;;;22.56;13.01;99832.03;5093705;28;1334;-80
2023/02/10 08:06:02;;;;;;;;;;;;;;;21.94;13.47;99832.44;5094000;28;1090;-81
2023/02/10 08:08:27;;;;;;;;;;;;;;;22.28;13.18;99835.72;5064983;28;893;-79
2023/02/10 08:10:54;;;;;;;;;;;;;;;21.71;13.49;99831.97;5071041;28;1525;-80
2023/02/10 08:13:20;;;;;;;;;;;;;;;21.92;13.31;99831.22;5056204;28;1362;-80
2023/02/10 08:15:45;;;;;;;;;;;;;;;21.65;13.68;99827.91;5056180;28;906;-80
2023/02/10 08:18:11;;;;;;;;;;;;;;;22.73;12.53;99830.38;5071122;28;1483;-80
2023/02/10 08:20:36;;;;;;;;;;;;;;;22.54;12.68;99830.84;5075966;28;876;-80
2023/02/10 08:23:02;;;;;;;;;;;;;;;22.62;12.53;99838.09;5077057;28;965;-80
2023/02/10 08:25:27;;;;;;;;;;;;;;;22.51;12.76;99831.63;5076228;28;807;-80
2023/02/10 08:27:53;;;;;;;;;;;;;;;22.58;12.61;99840.13;5075267;28;1264;-80
2023/02/10 08:30:18;;;;;;;;;;;;;;;22.34;12.93;99841.78;5108550;28;981;-80
2023/02/10 08:32:44;;;;;;;;;;;;;;;22.63;12.74;99834.03;5076649;28;868;-80
2023/02/10 08:35:09;;;;;;;;;;;;;;;22.54;12.89;99837.31;5076274;28;926;-79
2023/02/10 08:37:35;;;;;;;;;;;;;;;22.39;13.09;99837.75;5064719;28;1482;-80
2023/02/10 08:40:00;;;;;;;;;;;;;;;22.51;12.88;99846.63;5056065;28;1906;-80
2023/02/10 08:42:26;;;;;;;;;;;;;;;22.45;12.92;99836.13;5055662;28;860;-79
2023/02/10 08:44:51;;;;;;;;;;;;;;;22.69;12.80;99835.28;5056083;28;1055;-80
2023/02/10 08:47:16;;;;;;;;;;;;;;;22.57;12.83;99839.31;5056160;28;1287;-79
2023/02/10 08:49:42;;;;;;;;;;;;;;;22.14;13.09;99849.88;5087996;28;974;-80
2023/02/10 08:52:08;;;;;;;;;;;;;;;22.01;13.22;99848.63;5088700;28;930;-80
2023/02/10 08:54:33;;;;;;;;;;;;;;;21.94;13.69;99840.13;5092202;28;1045;-80
2023/02/10 08:56:59;;;;;;;;;;;;;;;22.27;13.34;99836.91;5060024;28;1367;-80
2023/02/10 08:59:25;;;;;;;;;;;;;;;21.95;13.31;99836.88;5060232;28;1906;-80
2023/02/10 09:01:51;;;;;;;;;;;;;;;22.51;12.96;99840.16;5059884;28;964;-79
2023/02/10 09:04:16;;;;;;;;;;;;;;;22.45;12.80;99836.91;5092440;28;802;-79
2023/02/10 09:06:43;;;;;;;;;;;;;;;22.40;13.20;99845.03;5061793;28;1436;-80
2023/02/10 09:09:15;;;;;;;;;;;;;;;22.79;12.91;99834.41;5079862;28;839;-80
2023/02/10 09:11:41;;;;;;;;;;;;;;;22.69;12.89;99835.28;5079989;28;917;-80
2023/02/10 09:14:06;;;;;;;;;;;;;;;22.83;12.59;99832.38;5079236;28;1397;-80
2023/02/10 09:16:32;;;;;;;;;;;;;;;22.66;12.80;99836.06;5112468;28;841;-80
2023/02/10 09:18:57;;;;;;;;;;;;;;;22.42;12.93;99831.25;5079203;28;1910;-80
2023/02/10 09:21:24;;;;;;;;;;;;;;;22.73;12.87;99830.38;5079522;28;889;-79
2023/02/10 09:23:49;;;;;;;;;;;;;;;22.62;12.73;99818.25;5077786;28;1328;-80
2023/02/10 09:26:15;;;;;;;;;;;;;;;22.59;13.09;99819.06;5112380;28;958;-80
2023/02/10 09:28:40;;;;;;;;;;;;;;;22.96;12.71;99823.47;5079191;28;875;-80
2023/02/10 09:31:06;;;;;;;;;;;;;;;22.52;13.03;99825.56;5079507;28;924;-80
2023/02/10 09:33:32;;;;;;;;;;;;;;;22.33;13.25;99826.81;5078767;28;1296;-80
2023/02/10 09:35:57;;;;;;;;;;;;;;;22.62;13.13;99823.91;5078918;28;964;-80
2023/02/10 09:38:22;;;;;;;;;;;;;;;22.59;12.97;99824.75;5079192;28;1976;-80
2023/02/10 09:40:48;;;;;;;;;;;;;;;23.01;12.54;99823.03;5079593;28;867;-80
2023/02/10 09:43:13;;;;;;;;;;;;;;;22.92;12.55;99819.81;5079182;28;899;-80
2023/02/10 09:45:40;;;;;;;;;;;;;;;23.05;12.75;99818.13;5060417;28;1535;-81
2023/02/10 09:48:09;;;;;;;;;;;;;;;22.22;13.12;99823.16;5090378;28;936;-80
2023/02/10 09:50:54;;;;;;;;;;;;;;;22.58;13.19;99808.94;5058757;28;954;-80
2023/02/10 09:53:21;;;;;;;;;;;;;;;22.41;13.18;99809.78;5091326;28;911;-80
2023/02/10 09:55:48;;;;;;;;;;;;;;;22.48;12.96;99801.25;5110095;28;1432;-80
2023/02/10 09:58:15;;;;;;;;;;;;;;;22.32;13.06;99799.63;5111462;28;833;-80
2023/02/10 10:00:41;;;;;;;;;;;;;;;22.10;13.44;99803.69;5111176;28;1099;-80
2023/02/10 10:03:07;;;;;;;;;;;;;;;22.77;12.98;99799.16;5103051;28;1481;-79
2023/02/10 10:05:47;;;;;;;;;;;;;;;22.49;13.11;99791.53;5078205;28;1200;-79
2023/02/10 10:08:16;;;;;;;;;;;;;;;22.55;13.09;99790.72;5096577;28;920;-80
2023/02/10 10:10:42;;;;;;;;;;;;;;;22.05;13.45;99789.91;5079943;28;956;-79
2023/02/10 10:13:12;;;;;;;;;;;;;;;22.78;12.92;99780.91;5079243;28;1451;-80
2023/02/10 10:15:39;;;;;;;;;;;;;;;22.74;12.80;99780.94;5079683;28;1458;-80
2023/02/10 10:18:07;;;;;;;;;;;;;;;22.27;13.15;99773.72;5079719;28;937;-80
2023/02/10 10:20:39;;;;;;;;;;;;;;;22.22;13.22;99780.59;5096111;28;1906;-81
2023/02/10 10:23:04;;;;;;;;;;;;;;;22.88;12.85;99772.38;5087304;28;1292;-80
2023/02/10 10:25:48;;;;;;;;;;;;;;;22.77;12.90;99774.41;5096091;28;1036;-80
2023/02/10 10:28:20;;;;;;;;;;;;;;;22.60;13.06;99763.94;5096123;28;962;-80
2023/02/10 10:30:48;;;;;;;;;;;;;;;22.10;13.53;99764.00;5096512;28;1065;-80
2023/02/10 10:33:23;;;;;;;;;;;;;;;21.64;13.97;99767.63;5103351;28;1382;-79
2023/02/10 10:35:49;;;;;;;;;;;;;;;22.21;13.26;99756.31;5078024;28;964;-80
2023/02/10 10:38:22;;;;;;;;;;;;;;;22.54;12.94;99757.09;5094401;28;892;-79
2023/02/10 10:40:47;;;;;;;;;;;;;;;22.41;13.33;99761.56;5093625;28;1212;-79
2023/02/10 10:43:15;;;;;;;;;;;;;;;22.26;13.37;99753.06;5086884;28;1907;-80
2023/02/10 10:45:42;;;;;;;;;;;;;;;22.80;13.04;99752.94;5090422;28;1663;-80
2023/02/10 10:48:17;;;;;;;;;;;;;;;22.21;13.52;99747.81;5089810;28;972;-79
2023/02/10 10:50:42;;;;;;;;;;;;;;;22.59;13.17;99751.00;5058072;28;1220;-79
2023/02/10 10:53:13;;;;;;;;;;;;;;;22.62;13.21;99744.47;5057883;28;1413;-80
2023/02/10 10:55:49;;;;;;;;;;;;;;;22.83;12.88;99750.06;5090321;28;951;-80
2023/02/10 10:58:31;;;;;;;;;;;;;;;22.46;13.36;99746.97;5089916;28;915;-80
2023/02/10 11:00:57;;;;;;;;;;;;;;;21.98;13.44;99745.38;5090264;28;872;-80
2023/02/10 11:03:23;;;;;;;;;;;;;;;22.65;13.31;99743.66;5095953;28;1437;-80
2023/02/10 11:05:58;;;;;;;;;;;;;;;22.66;13.22;99744.47;5076973;28;1363;-80
2023/02/10 11:08:25;;;;;;;;;;;;;;;22.45;13.44;99736.84;5110182;28;966;-80
2023/02/10 11:10:54;;;;;;;;;;;;;;;22.63;12.94;99724.19;5109915;28;936;-79
2023/02/10 11:13:20;;;;;;;;;;;;;;;22.59;13.25;99731.94;5076727;28;1391;-80
2023/02/10 11:15:45;;;;;;;;;;;;;;;22.44;13.18;99726.72;5109509;28;1165;-80
2023/02/10 11:18:16;;;;;;;;;;;;;;;22.83;12.84;99718.84;5109652;28;972;-80
2023/02/10 11:20:50;;;;;;;;;;;;;;;22.46;13.17;99718.59;5109644;28;2000;-80
2023/02/10 11:23:16;;;;;;;;;;;;;;;22.42;13.03;99707.25;5090027;28;1462;-80
2023/02/10 11:25:41;;;;;;;;;;;;;;;22.01;13.55;99706.91;5056973;28;914;-80
2023/02/10 11:28:17;;;;;;;;;;;;;;;22.74;13.11;99707.16;5072309;28;1550;-80
2023/02/10 11:30:44;;;;;;;;;;;;;;;22.82;12.65;99694.53;5089272;28;1011;-80
2023/02/10 11:33:20;;;;;;;;;;;;;;;22.95;12.85;99696.91;5088668;28;1485;-80
2023/02/10 11:35:49;;;;;;;;;;;;;;;22.74;13.11;99701.47;5089171;28;1488;-79
2023/02/10 11:38:19;;;;;;;;;;;;;;;22.54;13.11;99703.19;5057056;28;909;-80
2023/02/10 11:40:51;;;;;;;;;;;;;;;22.55;13.12;99687.78;5056717;28;928;-80
2023/02/10 11:43:17;;;;;;;;;;;;;;;22.70;13.32;99695.00;5056375;28;1689;-79
2023/02/10 11:45:52;;;;;;;;;;;;;;;22.47;13.23;99691.84;5056981;28;955;-80
2023/02/10 11:48:19;;;;;;;;;;;;;;;22.48;13.11;99690.63;5056544;28;874;-80
2023/02/10 11:50:44;;;;;;;;;;;;;;;22.05;13.60;99687.88;5056422;28;880;-80
2023/02/10 11:53:30;;;;;;;;;;;;;;;22.74;13.16;99701.47;5074043;28;1351;-79
2023/02/10 11:55:55;;;;;;;;;;;;;;;22.38;13.48;99689.44;5076564;28;1124;-80
2023/02/10 12:01:22;;;;;;;;;;;;;;;22.99;12.90;99677.84;5074325;28;1403;-80
2023/02/10 12:03:51;;;;;;;;;;;;;;;22.50;13.43;99691.84;5089358;28;927;-80
2023/02/10 12:06:26;;;;;;;;;;;;;;;22.26;13.25;99687.84;5056383;28;1089;-80
2023/02/10 12:08:57;;;;;;;;;;;;;;;23.09;12.88;99682.66;5056177;28;949;-80
2023/02/10 12:11:38;;;;;;;;;;;;;;;23.01;12.88;99672.59;5056631;28;1272;-80
2023/02/10 12:14:22;;;;;;;;;;;;;;;22.55;13.09;99684.94;5088878;28;1005;-80
2023/02/10 12:17:06;;;;;;;;;;;;;;;22.25;13.19;99674.91;5056370;28;1007;-80
2023/02/10 12:19:31;;;;;;;;;;;;;;;22.85;13.27;99679.53;5056127;28;1909;-79
2023/02/10 12:21:58;;;;;;;;;;;;;;;22.66;13.19;99665.84;5056615;28;1279;-79
2023/02/10 12:24:42;;;;;;;;;;;;;;;22.70;13.05;99663.78;5056292;28;937;-79
2023/02/10 12:27:18;;;;;;;;;;;;;;;22.74;13.17;99673.09;5055496;28;953;-79
2023/02/10 12:29:43;;;;;;;;;;;;;;;23.05;12.73;99681.88;5088321;28;968;-80
2023/02/10 12:32:27;;;;;;;;;;;;;;;22.35;13.71;99676.88;5056063;28;1811;-80
2023/02/10 12:34:56;;;;;;;;;;;;;;;22.02;14.01;99666.84;5055815;28;1005;-80
2023/02/10 12:37:23;;;;;;;;;;;;;;;22.73;13.16;99674.28;5056017;28;967;-77
2023/02/10 12:39:58;;;;;;;;;;;;;;;22.32;13.63;99680.53;5088764;28;1988;-80
2023/02/10 12:42:42;;;;;;;;;;;;;;;21.83;14.06;99685.06;5055521;28;1400;-78
2023/02/10 12:45:07;;;;;;;;;;;;;;;22.33;13.54;99682.19;5056381;28;854;-79
2023/02/10 12:47:33;;;;;;;;;;;;;;;22.73;13.33;99670.66;5055878;28;914;-80
2023/02/10 12:50:02;;;;;;;;;;;;;;;22.93;13.15;99668.16;5055912;28;791;-80
2023/02/10 12:52:28;;;;;;;;;;;;;;;22.44;13.54;99681.34;5081628;28;1614;-80
2023/02/10 12:54:55;;;;;;;;;;;;;;;22.72;13.13;99669.84;5074469;28;967;-80
2023/02/10 12:57:27;;;;;;;;;;;;;;;22.41;13.31;99671.59;5076017;28;934;-79
2023/02/10 13:00:00;;;;;;;;;;;;;;;23.19;12.99;99664.75;5108362;28;1983;-79
2023/02/10 13:02:32;;;;;;;;;;;;;;;22.46;13.42;99662.66;5089898;28;1426;-79
2023/02/10 13:04:58;;;;;;;;;;;;;;;22.74;13.21;99650.41;5108752;28;944;-80
2023/02/10 13:07:42;;;;;;;;;;;;;;;22.62;13.25;99653.69;5108029;28;1176;-80